sensor_id;sensor_type;location;lat;lon;timestamp;P1;durP1;ratioP1;P2;durP2;ratioP2
9836;SDS011;4957;51.412;6.724;2023-03-23T00:01:00;3.47;;;1.93;;
9836;SDS011;4957;51.412;6.724;2023-03-23T00:03:26;5.27;;;2.63;;
9836;SDS011;4957;51.412;6.724;2023-03-23T00:05:57;4.77;;;2.43;;
9836;SDS011;4957;51.412;6.724;2023-03-23T00:08:31;2.60;;;2.20;;
9836;SDS011;4957;51.412;6.724;2023-03-23T00:10:58;2.73;;;2.23;;
9836;SDS011;4957;51.412;6.724;2023-03-23T00:13:26;4.20;;;2.10;;
9836;SDS011;4957;51.412;6.724;2023-03-23T00:15:53;3.70;;;2.37;;
9836;SDS011;4957;51.412;6.724;2023-03-23T00:18:22;3.43;;;2.27;;
9836;SDS011;4957;51.412;6.724;2023-03-23T00:20:49;7.80;;;3.00;;
9836;SDS011;4957;51.412;6.724;2023-03-23T00:23:16;6.37;;;3.10;;
9836;SDS011;4957;51.412;6.724;2023-03-23T00:25:50;5.20;;;3.13;;
9836;SDS011;4957;51.412;6.724;2023-03-23T00:28:24;5.93;;;3.50;;
9836;SDS011;4957;51.412;6.724;2023-03-23T00:30:57;7.53;;;3.87;;
9836;SDS011;4957;51.412;6.724;2023-03-23T00:33:28;7.87;;;3.43;;
9836;SDS011;4957;51.412;6.724;2023-03-23T00:36:03;10.70;;;5.00;;
9836;SDS011;4957;51.412;6.724;2023-03-23T00:38:30;8.53;;;4.90;;
9836;SDS011;4957;51.412;6.724;2023-03-23T00:40:56;8.53;;;4.40;;
9836;SDS011;4957;51.412;6.724;2023-03-23T00:43:23;8.53;;;3.80;;
9836;SDS011;4957;51.412;6.724;2023-03-23T00:45:54;8.87;;;4.33;;
9836;SDS011;4957;51.412;6.724;2023-03-23T00:48:23;6.60;;;3.90;;
9836;SDS011;4957;51.412;6.724;2023-03-23T00:50:49;9.60;;;4.13;;
9836;SDS011;4957;51.412;6.724;2023-03-23T00:53:16;7.73;;;4.13;;
9836;SDS011;4957;51.412;6.724;2023-03-23T00:55:43;7.50;;;4.20;;
9836;SDS011;4957;51.412;6.724;2023-03-23T00:58:11;6.17;;;4.03;;
9836;SDS011;4957;51.412;6.724;2023-03-23T01:00:38;8.77;;;4.63;;
9836;SDS011;4957;51.412;6.724;2023-03-23T01:03:04;13.20;;;5.90;;
9836;SDS011;4957;51.412;6.724;2023-03-23T01:05:33;12.10;;;5.17;;
9836;SDS011;4957;51.412;6.724;2023-03-23T01:08:00;10.50;;;4.53;;
9836;SDS011;4957;51.412;6.724;2023-03-23T01:10:27;9.93;;;4.23;;
9836;SDS011;4957;51.412;6.724;2023-03-23T01:12:53;10.93;;;4.40;;
9836;SDS011;4957;51.412;6.724;2023-03-23T01:15:20;7.00;;;3.90;;
9836;SDS011;4957;51.412;6.724;2023-03-23T01:17:46;7.37;;;4.53;;
9836;SDS011;4957;51.412;6.724;2023-03-23T01:20:13;6.30;;;3.90;;
9836;SDS011;4957;51.412;6.724;2023-03-23T01:22:40;9.73;;;4.30;;
9836;SDS011;4957;51.412;6.724;2023-03-23T01:25:07;6.30;;;3.80;;
9836;SDS011;4957;51.412;6.724;2023-03-23T01:27:33;8.80;;;3.67;;
9836;SDS011;4957;51.412;6.724;2023-03-23T01:29:59;11.97;;;5.17;;
9836;SDS011;4957;51.412;6.724;2023-03-23T01:32:24;10.50;;;3.80;;
9836;SDS011;4957;51.412;6.724;2023-03-23T01:34:50;12.53;;;4.37;;
9836;SDS011;4957;51.412;6.724;2023-03-23T01:37:16;9.43;;;4.73;;
9836;SDS011;4957;51.412;6.724;2023-03-23T01:39:42;10.57;;;5.10;;
9836;SDS011;4957;51.412;6.724;2023-03-23T01:42:08;12.30;;;4.90;;
9836;SDS011;4957;51.412;6.724;2023-03-23T01:47:00;8.67;;;4.47;;
9836;SDS011;4957;51.412;6.724;2023-03-23T01:49:36;7.97;;;3.80;;
9836;SDS011;4957;51.412;6.724;2023-03-23T01:52:11;8.87;;;3.67;;
9836;SDS011;4957;51.412;6.724;2023-03-23T01:54:42;12.43;;;4.63;;
9836;SDS011;4957;51.412;6.724;2023-03-23T01:57:13;6.43;;;4.47;;
9836;SDS011;4957;51.412;6.724;2023-03-23T01:59:43;10.83;;;4.43;;
9836;SDS011;4957;51.412;6.724;2023-03-23T02:02:13;8.83;;;4.97;;
9836;SDS011;4957;51.412;6.724;2023-03-23T02:04:40;10.13;;;5.10;;
9836;SDS011;4957;51.412;6.724;2023-03-23T02:07:07;7.93;;;4.50;;
9836;SDS011;4957;51.412;6.724;2023-03-23T02:09:33;9.57;;;4.10;;
9836;SDS011;4957;51.412;6.724;2023-03-23T02:11:59;7.83;;;4.00;;
9836;SDS011;4957;51.412;6.724;2023-03-23T02:14:26;6.23;;;3.97;;
9836;SDS011;4957;51.412;6.724;2023-03-23T02:19:54;8.90;;;5.00;;
9836;SDS011;4957;51.412;6.724;2023-03-23T02:25:37;9.83;;;5.57;;
9836;SDS011;4957;51.412;6.724;2023-03-23T02:28:37;10.30;;;5.10;;
9836;SDS011;4957;51.412;6.724;2023-03-23T02:34:18;12.13;;;5.20;;
9836;SDS011;4957;51.412;6.724;2023-03-23T02:36:58;9.90;;;4.60;;
9836;SDS011;4957;51.412;6.724;2023-03-23T02:39:39;11.33;;;5.47;;
9836;SDS011;4957;51.412;6.724;2023-03-23T02:42:17;11.70;;;5.57;;
9836;SDS011;4957;51.412;6.724;2023-03-23T02:44:47;15.93;;;5.07;;
9836;SDS011;4957;51.412;6.724;2023-03-23T02:47:16;10.10;;;5.33;;
9836;SDS011;4957;51.412;6.724;2023-03-23T02:49:46;10.50;;;6.80;;
9836;SDS011;4957;51.412;6.724;2023-03-23T02:52:17;10.63;;;5.70;;
9836;SDS011;4957;51.412;6.724;2023-03-23T02:54:47;10.60;;;5.30;;
9836;SDS011;4957;51.412;6.724;2023-03-23T02:57:14;11.63;;;5.70;;
9836;SDS011;4957;51.412;6.724;2023-03-23T02:59:39;11.00;;;5.40;;
9836;SDS011;4957;51.412;6.724;2023-03-23T03:15:31;7.43;;;4.30;;
9836;SDS011;4957;51.412;6.724;2023-03-23T03:20:37;9.13;;;4.30;;
9836;SDS011;4957;51.412;6.724;2023-03-23T03:23:08;7.43;;;4.00;;
9836;SDS011;4957;51.412;6.724;2023-03-23T03:25:37;8.67;;;3.53;;
9836;SDS011;4957;51.412;6.724;2023-03-23T03:28:06;7.20;;;3.43;;
9836;SDS011;4957;51.412;6.724;2023-03-23T03:30:32;7.60;;;3.80;;
9836;SDS011;4957;51.412;6.724;2023-03-23T03:33:01;8.80;;;4.90;;
9836;SDS011;4957;51.412;6.724;2023-03-23T03:35:28;10.67;;;5.90;;
9836;SDS011;4957;51.412;6.724;2023-03-23T03:37:55;9.67;;;4.67;;
9836;SDS011;4957;51.412;6.724;2023-03-23T03:40:22;11.60;;;5.90;;
9836;SDS011;4957;51.412;6.724;2023-03-23T03:42:49;7.80;;;4.77;;
9836;SDS011;4957;51.412;6.724;2023-03-23T03:45:16;12.77;;;5.20;;
9836;SDS011;4957;51.412;6.724;2023-03-23T03:47:44;13.13;;;4.77;;
9836;SDS011;4957;51.412;6.724;2023-03-23T03:50:10;11.30;;;4.97;;
9836;SDS011;4957;51.412;6.724;2023-03-23T03:52:37;8.30;;;4.73;;
9836;SDS011;4957;51.412;6.724;2023-03-23T03:55:03;9.83;;;5.43;;
9836;SDS011;4957;51.412;6.724;2023-03-23T03:57:32;9.97;;;4.40;;
9836;SDS011;4957;51.412;6.724;2023-03-23T03:59:58;9.57;;;5.60;;
9836;SDS011;4957;51.412;6.724;2023-03-23T04:02:23;7.97;;;4.70;;
9836;SDS011;4957;51.412;6.724;2023-03-23T04:04:49;7.60;;;4.07;;
9836;SDS011;4957;51.412;6.724;2023-03-23T04:07:17;10.53;;;3.93;;
9836;SDS011;4957;51.412;6.724;2023-03-23T04:09:44;6.17;;;3.23;;
9836;SDS011;4957;51.412;6.724;2023-03-23T04:12:14;4.97;;;3.60;;
9836;SDS011;4957;51.412;6.724;2023-03-23T04:14:40;6.73;;;3.30;;
9836;SDS011;4957;51.412;6.724;2023-03-23T04:17:06;4.33;;;2.87;;
9836;SDS011;4957;51.412;6.724;2023-03-23T04:19:34;4.93;;;2.33;;
9836;SDS011;4957;51.412;6.724;2023-03-23T04:22:02;4.83;;;2.30;;
9836;SDS011;4957;51.412;6.724;2023-03-23T04:24:29;2.70;;;2.30;;
9836;SDS011;4957;51.412;6.724;2023-03-23T04:26:58;4.80;;;2.23;;
9836;SDS011;4957;51.412;6.724;2023-03-23T04:29:25;3.27;;;2.20;;
9836;SDS011;4957;51.412;6.724;2023-03-23T04:31:51;2.53;;;2.07;;
9836;SDS011;4957;51.412;6.724;2023-03-23T04:34:17;1.97;;;1.77;;
9836;SDS011;4957;51.412;6.724;2023-03-23T04:36:44;4.03;;;2.20;;
9836;SDS011;4957;51.412;6.724;2023-03-23T04:39:11;2.03;;;1.83;;
9836;SDS011;4957;51.412;6.724;2023-03-23T04:41:38;2.50;;;1.90;;
9836;SDS011;4957;51.412;6.724;2023-03-23T04:44:05;2.53;;;1.80;;
9836;SDS011;4957;51.412;6.724;2023-03-23T04:46:31;4.83;;;2.50;;
9836;SDS011;4957;51.412;6.724;2023-03-23T04:48:58;2.23;;;2.03;;
9836;SDS011;4957;51.412;6.724;2023-03-23T04:51:24;3.20;;;1.90;;
9836;SDS011;4957;51.412;6.724;2023-03-23T04:53:52;2.63;;;2.17;;
9836;SDS011;4957;51.412;6.724;2023-03-23T04:56:18;3.07;;;2.30;;
9836;SDS011;4957;51.412;6.724;2023-03-23T04:58:44;2.60;;;1.80;;
9836;SDS011;4957;51.412;6.724;2023-03-23T05:01:10;2.53;;;2.20;;
9836;SDS011;4957;51.412;6.724;2023-03-23T05:03:42;3.10;;;2.40;;
9836;SDS011;4957;51.412;6.724;2023-03-23T05:06:09;4.60;;;2.10;;
9836;SDS011;4957;51.412;6.724;2023-03-23T05:08:34;4.37;;;2.40;;
9836;SDS011;4957;51.412;6.724;2023-03-23T05:11:03;3.80;;;2.53;;
9836;SDS011;4957;51.412;6.724;2023-03-23T05:13:30;5.33;;;2.67;;
9836;SDS011;4957;51.412;6.724;2023-03-23T05:15:56;2.87;;;2.67;;
9836;SDS011;4957;51.412;6.724;2023-03-23T05:18:22;5.40;;;3.00;;
9836;SDS011;4957;51.412;6.724;2023-03-23T05:20:48;4.17;;;2.83;;
9836;SDS011;4957;51.412;6.724;2023-03-23T05:23:14;5.03;;;2.90;;
9836;SDS011;4957;51.412;6.724;2023-03-23T05:25:40;3.70;;;3.00;;
9836;SDS011;4957;51.412;6.724;2023-03-23T05:28:07;6.20;;;2.83;;
9836;SDS011;4957;51.412;6.724;2023-03-23T05:30:33;5.13;;;3.10;;
9836;SDS011;4957;51.412;6.724;2023-03-23T05:32:59;4.27;;;2.80;;
9836;SDS011;4957;51.412;6.724;2023-03-23T05:35:25;3.23;;;2.80;;
9836;SDS011;4957;51.412;6.724;2023-03-23T05:37:50;3.97;;;2.57;;
9836;SDS011;4957;51.412;6.724;2023-03-23T05:40:18;2.77;;;2.37;;
9836;SDS011;4957;51.412;6.724;2023-03-23T05:42:45;2.50;;;1.97;;
9836;SDS011;4957;51.412;6.724;2023-03-23T05:45:12;2.57;;;1.87;;
9836;SDS011;4957;51.412;6.724;2023-03-23T05:47:38;3.47;;;2.43;;
9836;SDS011;4957;51.412;6.724;2023-03-23T05:50:05;2.87;;;2.40;;
9836;SDS011;4957;51.412;6.724;2023-03-23T05:52:34;5.00;;;2.63;;
9836;SDS011;4957;51.412;6.724;2023-03-23T05:55:01;4.70;;;2.63;;
9836;SDS011;4957;51.412;6.724;2023-03-23T05:57:28;2.33;;;2.10;;
9836;SDS011;4957;51.412;6.724;2023-03-23T05:59:54;2.87;;;2.03;;
9836;SDS011;4957;51.412;6.724;2023-03-23T06:02:21;2.67;;;2.13;;
9836;SDS011;4957;51.412;6.724;2023-03-23T06:04:48;3.60;;;2.50;;
9836;SDS011;4957;51.412;6.724;2023-03-23T06:07:14;2.57;;;1.93;;
9836;SDS011;4957;51.412;6.724;2023-03-23T06:09:40;2.73;;;2.17;;
9836;SDS011;4957;51.412;6.724;2023-03-23T06:12:07;4.17;;;2.57;;
9836;SDS011;4957;51.412;6.724;2023-03-23T06:14:34;4.57;;;2.30;;
9836;SDS011;4957;51.412;6.724;2023-03-23T06:17:01;3.10;;;2.30;;
9836;SDS011;4957;51.412;6.724;2023-03-23T06:19:27;9.97;;;2.33;;
9836;SDS011;4957;51.412;6.724;2023-03-23T06:21:56;4.60;;;2.17;;
9836;SDS011;4957;51.412;6.724;2023-03-23T06:24:21;2.97;;;2.23;;
9836;SDS011;4957;51.412;6.724;2023-03-23T06:26:47;5.53;;;2.60;;
9836;SDS011;4957;51.412;6.724;2023-03-23T06:29:14;7.20;;;2.47;;
9836;SDS011;4957;51.412;6.724;2023-03-23T06:31:40;5.73;;;2.47;;
9836;SDS011;4957;51.412;6.724;2023-03-23T06:34:09;3.63;;;2.33;;
9836;SDS011;4957;51.412;6.724;2023-03-23T06:36:36;6.63;;;2.77;;
9836;SDS011;4957;51.412;6.724;2023-03-23T06:39:03;4.00;;;2.67;;
9836;SDS011;4957;51.412;6.724;2023-03-23T06:41:29;4.80;;;2.53;;
9836;SDS011;4957;51.412;6.724;2023-03-23T06:43:56;4.93;;;2.30;;
9836;SDS011;4957;51.412;6.724;2023-03-23T06:46:22;6.00;;;2.77;;
9836;SDS011;4957;51.412;6.724;2023-03-23T06:48:48;8.10;;;2.47;;
9836;SDS011;4957;51.412;6.724;2023-03-23T06:51:17;4.77;;;2.33;;
9836;SDS011;4957;51.412;6.724;2023-03-23T06:53:43;6.00;;;2.40;;
9836;SDS011;4957;51.412;6.724;2023-03-23T06:56:09;4.57;;;2.40;;
9836;SDS011;4957;51.412;6.724;2023-03-23T06:58:36;4.03;;;2.10;;
9836;SDS011;4957;51.412;6.724;2023-03-23T07:01:02;7.33;;;2.60;;
9836;SDS011;4957;51.412;6.724;2023-03-23T07:03:29;5.87;;;2.23;;
9836;SDS011;4957;51.412;6.724;2023-03-23T07:05:56;4.20;;;2.20;;
9836;SDS011;4957;51.412;6.724;2023-03-23T07:08:22;8.67;;;2.67;;
9836;SDS011;4957;51.412;6.724;2023-03-23T07:10:50;6.60;;;2.37;;
9836;SDS011;4957;51.412;6.724;2023-03-23T07:13:17;6.60;;;2.50;;
9836;SDS011;4957;51.412;6.724;2023-03-23T07:15:44;4.10;;;2.30;;
9836;SDS011;4957;51.412;6.724;2023-03-23T07:18:10;3.37;;;2.37;;
9836;SDS011;4957;51.412;6.724;2023-03-23T07:20:36;7.40;;;2.27;;
9836;SDS011;4957;51.412;6.724;2023-03-23T07:23:02;4.33;;;2.10;;
9836;SDS011;4957;51.412;6.724;2023-03-23T07:25:31;6.17;;;1.97;;
9836;SDS011;4957;51.412;6.724;2023-03-23T07:27:58;5.47;;;2.10;;
9836;SDS011;4957;51.412;6.724;2023-03-23T07:30:25;8.17;;;2.20;;
9836;SDS011;4957;51.412;6.724;2023-03-23T07:32:51;4.47;;;2.10;;
9836;SDS011;4957;51.412;6.724;2023-03-23T07:35:17;4.80;;;1.80;;
9836;SDS011;4957;51.412;6.724;2023-03-23T07:37:42;4.70;;;1.70;;
9836;SDS011;4957;51.412;6.724;2023-03-23T07:40:08;4.47;;;2.10;;
9836;SDS011;4957;51.412;6.724;2023-03-23T07:42:41;7.63;;;1.53;;
9836;SDS011;4957;51.412;6.724;2023-03-23T07:45:08;4.07;;;1.53;;
9836;SDS011;4957;51.412;6.724;2023-03-23T07:47:36;3.50;;;1.87;;
9836;SDS011;4957;51.412;6.724;2023-03-23T07:50:01;5.33;;;2.03;;
9836;SDS011;4957;51.412;6.724;2023-03-23T07:52:27;8.53;;;2.17;;
9836;SDS011;4957;51.412;6.724;2023-03-23T07:54:53;5.60;;;1.30;;
9836;SDS011;4957;51.412;6.724;2023-03-23T07:57:19;6.37;;;1.70;;
9836;SDS011;4957;51.412;6.724;2023-03-23T07:59:44;2.57;;;1.67;;
9836;SDS011;4957;51.412;6.724;2023-03-23T08:02:11;3.27;;;1.87;;
9836;SDS011;4957;51.412;6.724;2023-03-23T08:04:36;3.33;;;2.00;;
9836;SDS011;4957;51.412;6.724;2023-03-23T08:07:03;3.73;;;1.80;;
9836;SDS011;4957;51.412;6.724;2023-03-23T08:09:29;6.17;;;1.50;;
9836;SDS011;4957;51.412;6.724;2023-03-23T08:11:55;1.93;;;1.43;;
9836;SDS011;4957;51.412;6.724;2023-03-23T08:14:21;2.47;;;1.40;;
9836;SDS011;4957;51.412;6.724;2023-03-23T08:16:47;3.90;;;1.70;;
9836;SDS011;4957;51.412;6.724;2023-03-23T08:19:13;6.33;;;1.87;;
9836;SDS011;4957;51.412;6.724;2023-03-23T08:21:39;2.53;;;1.33;;
9836;SDS011;4957;51.412;6.724;2023-03-23T08:24:05;3.40;;;1.50;;
9836;SDS011;4957;51.412;6.724;2023-03-23T08:26:31;2.30;;;1.37;;
9836;SDS011;4957;51.412;6.724;2023-03-23T08:28:57;6.23;;;1.80;;
9836;SDS011;4957;51.412;6.724;2023-03-23T08:31:23;3.03;;;1.30;;
9836;SDS011;4957;51.412;6.724;2023-03-23T08:33:49;6.20;;;1.80;;
9836;SDS011;4957;51.412;6.724;2023-03-23T08:36:15;2.37;;;1.30;;
9836;SDS011;4957;51.412;6.724;2023-03-23T08:38:41;4.30;;;1.40;;
9836;SDS011;4957;51.412;6.724;2023-03-23T08:41:07;3.33;;;1.33;;
9836;SDS011;4957;51.412;6.724;2023-03-23T08:43:34;7.37;;;1.70;;
9836;SDS011;4957;51.412;6.724;2023-03-23T08:46:00;3.37;;;1.40;;
9836;SDS011;4957;51.412;6.724;2023-03-23T08:48:31;3.10;;;1.30;;
9836;SDS011;4957;51.412;6.724;2023-03-23T08:50:58;7.80;;;1.83;;
9836;SDS011;4957;51.412;6.724;2023-03-23T08:53:24;6.77;;;1.73;;
9836;SDS011;4957;51.412;6.724;2023-03-23T08:55:51;3.00;;;1.40;;
9836;SDS011;4957;51.412;6.724;2023-03-23T08:58:16;3.30;;;1.33;;
9836;SDS011;4957;51.412;6.724;2023-03-23T09:00:43;4.90;;;1.70;;
9836;SDS011;4957;51.412;6.724;2023-03-23T09:03:08;5.70;;;1.47;;
9836;SDS011;4957;51.412;6.724;2023-03-23T09:05:34;4.50;;;1.37;;
9836;SDS011;4957;51.412;6.724;2023-03-23T09:08:00;5.50;;;1.53;;
9836;SDS011;4957;51.412;6.724;2023-03-23T09:10:27;1.67;;;1.20;;
9836;SDS011;4957;51.412;6.724;2023-03-23T09:12:55;3.50;;;1.30;;
9836;SDS011;4957;51.412;6.724;2023-03-23T09:15:21;3.27;;;1.40;;
9836;SDS011;4957;51.412;6.724;2023-03-23T09:17:48;4.37;;;0.90;;
9836;SDS011;4957;51.412;6.724;2023-03-23T09:20:16;3.67;;;1.40;;
9836;SDS011;4957;51.412;6.724;2023-03-23T09:22:44;4.90;;;1.53;;
9836;SDS011;4957;51.412;6.724;2023-03-23T09:25:12;6.23;;;1.40;;
9836;SDS011;4957;51.412;6.724;2023-03-23T09:27:40;2.70;;;1.50;;
9836;SDS011;4957;51.412;6.724;2023-03-23T09:30:11;4.07;;;1.50;;
9836;SDS011;4957;51.412;6.724;2023-03-23T09:32:39;4.77;;;1.60;;
9836;SDS011;4957;51.412;6.724;2023-03-23T09:35:08;3.67;;;1.40;;
9836;SDS011;4957;51.412;6.724;2023-03-23T09:37:36;8.43;;;2.07;;
9836;SDS011;4957;51.412;6.724;2023-03-23T09:40:03;6.50;;;1.53;;
9836;SDS011;4957;51.412;6.724;2023-03-23T09:42:38;4.77;;;0.87;;
9836;SDS011;4957;51.412;6.724;2023-03-23T09:48:00;2.17;;;1.27;;
9836;SDS011;4957;51.412;6.724;2023-03-23T09:50:34;1.47;;;0.97;;
9836;SDS011;4957;51.412;6.724;2023-03-23T09:53:05;2.77;;;0.80;;
9836;SDS011;4957;51.412;6.724;2023-03-23T09:55:46;6.07;;;1.07;;
9836;SDS011;4957;51.412;6.724;2023-03-23T10:00:58;1.50;;;0.90;;
9836;SDS011;4957;51.412;6.724;2023-03-23T10:03:38;2.03;;;1.10;;
9836;SDS011;4957;51.412;6.724;2023-03-23T10:06:07;3.87;;;1.40;;
9836;SDS011;4957;51.412;6.724;2023-03-23T10:08:36;6.17;;;1.43;;
9836;SDS011;4957;51.412;6.724;2023-03-23T10:11:33;8.43;;;1.60;;
9836;SDS011;4957;51.412;6.724;2023-03-23T10:16:33;3.30;;;1.53;;
9836;SDS011;4957;51.412;6.724;2023-03-23T10:19:20;3.70;;;1.53;;
9836;SDS011;4957;51.412;6.724;2023-03-23T10:21:56;2.83;;;1.40;;
9836;SDS011;4957;51.412;6.724;2023-03-23T10:24:38;5.17;;;1.87;;
9836;SDS011;4957;51.412;6.724;2023-03-23T10:29:42;3.73;;;1.43;;
9836;SDS011;4957;51.412;6.724;2023-03-23T10:32:13;2.70;;;1.10;;
9836;SDS011;4957;51.412;6.724;2023-03-23T10:34:55;3.13;;;1.03;;
9836;SDS011;4957;51.412;6.724;2023-03-23T10:37:25;4.93;;;1.40;;
9836;SDS011;4957;51.412;6.724;2023-03-23T10:39:58;1.30;;;0.93;;
9836;SDS011;4957;51.412;6.724;2023-03-23T10:42:26;4.47;;;1.03;;
9836;SDS011;4957;51.412;6.724;2023-03-23T10:44:55;4.57;;;1.40;;
9836;SDS011;4957;51.412;6.724;2023-03-23T10:47:23;1.50;;;0.90;;
9836;SDS011;4957;51.412;6.724;2023-03-23T10:49:59;4.57;;;1.17;;
9836;SDS011;4957;51.412;6.724;2023-03-23T10:55:10;4.97;;;1.40;;
9836;SDS011;4957;51.412;6.724;2023-03-23T10:57:42;3.40;;;1.07;;
9836;SDS011;4957;51.412;6.724;2023-03-23T11:02:45;5.73;;;1.00;;
9836;SDS011;4957;51.412;6.724;2023-03-23T11:05:17;5.67;;;1.27;;
9836;SDS011;4957;51.412;6.724;2023-03-23T11:08:03;2.90;;;1.20;;
9836;SDS011;4957;51.412;6.724;2023-03-23T11:10:37;6.27;;;2.30;;
9836;SDS011;4957;51.412;6.724;2023-03-23T11:13:09;4.87;;;1.80;;
9836;SDS011;4957;51.412;6.724;2023-03-23T11:15:41;4.23;;;1.67;;
9836;SDS011;4957;51.412;6.724;2023-03-23T11:18:12;6.80;;;2.07;;
9836;SDS011;4957;51.412;6.724;2023-03-23T11:20:46;3.47;;;1.80;;
9836;SDS011;4957;51.412;6.724;2023-03-23T11:23:22;5.37;;;2.33;;
9836;SDS011;4957;51.412;6.724;2023-03-23T11:31:20;5.30;;;2.50;;
9836;SDS011;4957;51.412;6.724;2023-03-23T11:34:18;5.63;;;2.63;;
9836;SDS011;4957;51.412;6.724;2023-03-23T11:37:09;7.63;;;3.03;;
9836;SDS011;4957;51.412;6.724;2023-03-23T11:39:48;7.83;;;3.73;;
9836;SDS011;4957;51.412;6.724;2023-03-23T11:42:20;6.50;;;3.03;;
9836;SDS011;4957;51.412;6.724;2023-03-23T11:44:53;6.80;;;2.93;;
9836;SDS011;4957;51.412;6.724;2023-03-23T11:47:24;5.77;;;3.57;;
9836;SDS011;4957;51.412;6.724;2023-03-23T11:55:16;5.43;;;2.00;;
9836;SDS011;4957;51.412;6.724;2023-03-23T11:58:09;4.20;;;1.60;;
9836;SDS011;4957;51.412;6.724;2023-03-23T12:00:43;2.40;;;1.70;;
9836;SDS011;4957;51.412;6.724;2023-03-23T12:03:21;2.53;;;1.30;;
9836;SDS011;4957;51.412;6.724;2023-03-23T12:06:32;2.10;;;1.13;;
9836;SDS011;4957;51.412;6.724;2023-03-23T12:11:49;4.03;;;1.50;;
9836;SDS011;4957;51.412;6.724;2023-03-23T12:41:16;2.77;;;1.50;;
9836;SDS011;4957;51.412;6.724;2023-03-23T12:44:04;5.43;;;2.07;;
9836;SDS011;4957;51.412;6.724;2023-03-23T12:46:49;3.30;;;1.37;;
9836;SDS011;4957;51.412;6.724;2023-03-23T12:49:29;2.80;;;1.60;;
9836;SDS011;4957;51.412;6.724;2023-03-23T13:00:17;2.43;;;1.60;;
9836;SDS011;4957;51.412;6.724;2023-03-23T13:02:51;4.57;;;2.13;;
9836;SDS011;4957;51.412;6.724;2023-03-23T13:07:53;3.50;;;2.57;;
9836;SDS011;4957;51.412;6.724;2023-03-23T13:10:38;4.17;;;1.97;;
9836;SDS011;4957;51.412;6.724;2023-03-23T13:13:12;6.07;;;2.30;;
9836;SDS011;4957;51.412;6.724;2023-03-23T13:16:04;4.80;;;2.30;;
9836;SDS011;4957;51.412;6.724;2023-03-23T13:21:11;5.37;;;2.70;;
9836;SDS011;4957;51.412;6.724;2023-03-23T13:23:45;5.43;;;2.47;;
9836;SDS011;4957;51.412;6.724;2023-03-23T13:26:18;6.37;;;2.70;;
9836;SDS011;4957;51.412;6.724;2023-03-23T13:34:18;8.20;;;3.10;;
9836;SDS011;4957;51.412;6.724;2023-03-23T13:39:32;11.87;;;5.10;;
9836;SDS011;4957;51.412;6.724;2023-03-23T13:42:04;9.40;;;4.40;;
9836;SDS011;4957;51.412;6.724;2023-03-23T14:03:11;6.90;;;2.20;;
9836;SDS011;4957;51.412;6.724;2023-03-23T14:05:44;15.10;;;5.47;;
9836;SDS011;4957;51.412;6.724;2023-03-23T14:13:42;4.53;;;2.20;;
9836;SDS011;4957;51.412;6.724;2023-03-23T14:16:38;6.80;;;2.70;;
9836;SDS011;4957;51.412;6.724;2023-03-23T14:19:17;2.50;;;2.00;;
9836;SDS011;4957;51.412;6.724;2023-03-23T14:21:49;5.43;;;2.80;;
9836;SDS011;4957;51.412;6.724;2023-03-23T14:24:22;2.83;;;2.30;;
9836;SDS011;4957;51.412;6.724;2023-03-23T14:26:53;4.87;;;3.20;;
9836;SDS011;4957;51.412;6.724;2023-03-23T14:29:27;7.07;;;3.57;;
9836;SDS011;4957;51.412;6.724;2023-03-23T14:31:54;4.77;;;3.83;;
9836;SDS011;4957;51.412;6.724;2023-03-23T14:34:22;7.43;;;3.60;;
9836;SDS011;4957;51.412;6.724;2023-03-23T14:36:51;6.60;;;3.53;;
9836;SDS011;4957;51.412;6.724;2023-03-23T14:39:28;7.20;;;3.20;;
9836;SDS011;4957;51.412;6.724;2023-03-23T14:41:56;4.70;;;2.87;;
9836;SDS011;4957;51.412;6.724;2023-03-23T14:44:46;3.47;;;2.43;;
9836;SDS011;4957;51.412;6.724;2023-03-23T14:47:16;4.47;;;2.57;;
9836;SDS011;4957;51.412;6.724;2023-03-23T14:49:47;7.30;;;2.87;;
9836;SDS011;4957;51.412;6.724;2023-03-23T14:52:18;4.23;;;2.20;;
9836;SDS011;4957;51.412;6.724;2023-03-23T14:54:47;4.20;;;1.80;;
9836;SDS011;4957;51.412;6.724;2023-03-23T14:59:52;7.60;;;1.90;;
9836;SDS011;4957;51.412;6.724;2023-03-23T15:02:35;5.53;;;1.80;;
9836;SDS011;4957;51.412;6.724;2023-03-23T15:05:04;3.40;;;1.73;;
9836;SDS011;4957;51.412;6.724;2023-03-23T15:07:37;4.37;;;1.80;;
9836;SDS011;4957;51.412;6.724;2023-03-23T15:10:07;2.33;;;1.50;;
9836;SDS011;4957;51.412;6.724;2023-03-23T15:12:38;5.07;;;1.47;;
9836;SDS011;4957;51.412;6.724;2023-03-23T15:15:04;3.60;;;1.23;;
9836;SDS011;4957;51.412;6.724;2023-03-23T15:17:38;5.30;;;1.30;;
9836;SDS011;4957;51.412;6.724;2023-03-23T15:20:08;3.63;;;1.33;;
9836;SDS011;4957;51.412;6.724;2023-03-23T15:22:46;5.27;;;1.57;;
9836;SDS011;4957;51.412;6.724;2023-03-23T15:25:28;2.27;;;1.23;;
9836;SDS011;4957;51.412;6.724;2023-03-23T15:28:06;3.97;;;1.80;;
9836;SDS011;4957;51.412;6.724;2023-03-23T15:30:48;5.40;;;1.40;;
9836;SDS011;4957;51.412;6.724;2023-03-23T15:33:16;4.13;;;1.70;;
9836;SDS011;4957;51.412;6.724;2023-03-23T15:35:46;3.57;;;1.53;;
9836;SDS011;4957;51.412;6.724;2023-03-23T15:38:23;3.47;;;1.70;;
9836;SDS011;4957;51.412;6.724;2023-03-23T15:40:53;4.77;;;1.70;;
9836;SDS011;4957;51.412;6.724;2023-03-23T15:43:26;3.20;;;1.87;;
9836;SDS011;4957;51.412;6.724;2023-03-23T15:45:57;4.03;;;1.50;;
9836;SDS011;4957;51.412;6.724;2023-03-23T15:48:50;4.87;;;1.50;;
9836;SDS011;4957;51.412;6.724;2023-03-23T15:51:19;3.80;;;1.50;;
9836;SDS011;4957;51.412;6.724;2023-03-23T15:53:47;5.33;;;1.97;;
9836;SDS011;4957;51.412;6.724;2023-03-23T15:56:15;5.17;;;1.70;;
9836;SDS011;4957;51.412;6.724;2023-03-23T15:58:41;6.73;;;3.03;;
9836;SDS011;4957;51.412;6.724;2023-03-23T16:01:11;5.10;;;2.17;;
9836;SDS011;4957;51.412;6.724;2023-03-23T16:06:19;6.33;;;2.30;;
9836;SDS011;4957;51.412;6.724;2023-03-23T16:08:47;6.17;;;2.00;;
9836;SDS011;4957;51.412;6.724;2023-03-23T16:11:13;5.37;;;1.90;;
9836;SDS011;4957;51.412;6.724;2023-03-23T16:13:42;5.73;;;1.80;;
9836;SDS011;4957;51.412;6.724;2023-03-23T16:16:20;5.83;;;2.53;;
9836;SDS011;4957;51.412;6.724;2023-03-23T16:19:01;5.97;;;1.60;;
9836;SDS011;4957;51.412;6.724;2023-03-23T16:21:26;4.67;;;1.77;;
9836;SDS011;4957;51.412;6.724;2023-03-23T16:23:52;4.73;;;1.90;;
9836;SDS011;4957;51.412;6.724;2023-03-23T16:26:18;5.93;;;2.10;;
9836;SDS011;4957;51.412;6.724;2023-03-23T16:28:44;4.47;;;2.03;;
9836;SDS011;4957;51.412;6.724;2023-03-23T16:31:10;2.47;;;1.70;;
9836;SDS011;4957;51.412;6.724;2023-03-23T16:33:36;3.97;;;2.00;;
9836;SDS011;4957;51.412;6.724;2023-03-23T16:36:03;4.77;;;2.20;;
9836;SDS011;4957;51.412;6.724;2023-03-23T16:38:28;10.10;;;2.83;;
9836;SDS011;4957;51.412;6.724;2023-03-23T16:40:54;3.70;;;2.33;;
9836;SDS011;4957;51.412;6.724;2023-03-23T16:43:20;7.43;;;2.63;;
9836;SDS011;4957;51.412;6.724;2023-03-23T16:45:46;7.10;;;2.53;;
9836;SDS011;4957;51.412;6.724;2023-03-23T16:48:13;5.40;;;2.20;;
9836;SDS011;4957;51.412;6.724;2023-03-23T16:50:41;6.77;;;2.17;;
9836;SDS011;4957;51.412;6.724;2023-03-23T16:53:08;5.17;;;2.20;;
9836;SDS011;4957;51.412;6.724;2023-03-23T16:55:35;6.23;;;2.53;;
9836;SDS011;4957;51.412;6.724;2023-03-23T16:58:02;6.97;;;2.27;;
9836;SDS011;4957;51.412;6.724;2023-03-23T17:00:28;6.47;;;2.47;;
9836;SDS011;4957;51.412;6.724;2023-03-23T17:02:54;4.97;;;2.00;;
9836;SDS011;4957;51.412;6.724;2023-03-23T17:05:26;5.93;;;2.47;;
9836;SDS011;4957;51.412;6.724;2023-03-23T17:07:53;7.67;;;2.77;;
9836;SDS011;4957;51.412;6.724;2023-03-23T17:10:20;7.10;;;3.73;;
9836;SDS011;4957;51.412;6.724;2023-03-23T17:12:46;14.30;;;3.57;;
9836;SDS011;4957;51.412;6.724;2023-03-23T17:15:12;6.93;;;3.00;;
9836;SDS011;4957;51.412;6.724;2023-03-23T17:17:38;11.90;;;2.90;;
9836;SDS011;4957;51.412;6.724;2023-03-23T17:20:04;7.90;;;3.83;;
9836;SDS011;4957;51.412;6.724;2023-03-23T17:22:30;9.87;;;3.53;;
9836;SDS011;4957;51.412;6.724;2023-03-23T17:24:56;8.50;;;2.90;;
9836;SDS011;4957;51.412;6.724;2023-03-23T17:27:23;5.20;;;2.53;;
9836;SDS011;4957;51.412;6.724;2023-03-23T17:29:49;5.60;;;2.63;;
9836;SDS011;4957;51.412;6.724;2023-03-23T17:32:15;6.60;;;2.60;;
9836;SDS011;4957;51.412;6.724;2023-03-23T17:34:41;6.57;;;2.80;;
9836;SDS011;4957;51.412;6.724;2023-03-23T17:37:08;6.17;;;2.70;;
9836;SDS011;4957;51.412;6.724;2023-03-23T17:39:33;9.10;;;3.80;;
9836;SDS011;4957;51.412;6.724;2023-03-23T17:41:59;8.77;;;3.67;;
9836;SDS011;4957;51.412;6.724;2023-03-23T17:44:26;5.27;;;3.23;;